createdAt,value
2018-12-19T00:00:46.617Z,2.46
2018-12-19T00:03:14.514Z,2.58
2018-12-19T00:05:42.423Z,2.74
2018-12-19T00:08:12.128Z,2.76
2018-12-19T00:10:40.601Z,2.68
2018-12-19T00:13:10.468Z,2.53
2018-12-19T00:15:38.560Z,2.44
2018-12-19T00:18:06.189Z,2.43
2018-12-19T00:20:34.202Z,2.56
2018-12-19T00:23:02.706Z,2.68
2018-12-19T00:25:30.667Z,2.60
2018-12-19T00:27:58.219Z,2.57
2018-12-19T00:30:26.112Z,2.61
2018-12-19T00:32:55.411Z,2.70
2018-12-19T00:35:25.171Z,2.72
2018-12-19T00:37:53.941Z,2.50
2018-12-19T00:40:21.913Z,2.58
2018-12-19T00:42:49.644Z,2.58
2018-12-19T00:45:17.515Z,2.74
2018-12-19T00:47:45.231Z,2.85
2018-12-19T00:50:13.855Z,2.99
2018-12-19T00:52:41.713Z,3.12
2018-12-19T00:55:11.759Z,2.99
2018-12-19T00:57:39.372Z,3.11
2018-12-19T01:00:08.075Z,3.16
2018-12-19T01:02:36.539Z,3.18
2018-12-19T01:05:05.332Z,3.28
2018-12-19T01:07:32.987Z,3.36
2018-12-19T01:10:00.891Z,3.36
2018-12-19T01:12:28.512Z,3.41
2018-12-19T01:14:56.445Z,3.40
2018-12-19T01:17:24.414Z,3.45
2018-12-19T01:19:52.130Z,3.48
2018-12-19T01:22:19.935Z,3.45
2018-12-19T01:24:50.605Z,3.55
2018-12-19T01:27:18.223Z,3.61
2018-12-19T01:29:47.189Z,3.69
2018-12-19T01:32:15.083Z,3.74
2018-12-19T01:34:43.030Z,3.68
2018-12-19T01:37:10.688Z,3.66
2018-12-19T01:39:38.522Z,3.68
2018-12-19T01:42:06.472Z,3.73
2018-12-19T01:44:34.515Z,3.75
2018-12-19T01:47:02.545Z,3.76
2018-12-19T01:49:30.576Z,3.73
2018-12-19T01:51:58.785Z,3.75
2018-12-19T01:54:26.740Z,3.69
2018-12-19T01:56:54.358Z,3.76
2018-12-19T01:59:22.664Z,3.74
2018-12-19T02:01:50.414Z,3.75
2018-12-19T02:04:18.315Z,3.82
2018-12-19T02:06:46.279Z,3.84
2018-12-19T02:09:15.111Z,3.82
2018-12-19T02:11:42.776Z,3.85
2018-12-19T02:14:10.674Z,3.76
2018-12-19T02:16:38.731Z,3.81
2018-12-19T02:19:07.087Z,3.77
2018-12-19T02:21:34.780Z,3.76
2018-12-19T02:24:03.151Z,3.77
2018-12-19T02:26:30.721Z,3.79
2018-12-19T02:28:58.287Z,3.84
2018-12-19T02:31:25.810Z,3.85
2018-12-19T02:33:53.351Z,3.88
2018-12-19T02:36:20.877Z,3.77
2018-12-19T02:38:48.426Z,3.64
2018-12-19T02:41:15.941Z,3.68
2018-12-19T02:43:43.487Z,3.79
2018-12-19T02:46:11.008Z,3.86
2018-12-19T02:48:38.557Z,3.82
2018-12-19T02:51:06.076Z,3.88
2018-12-19T02:53:33.620Z,3.90
2018-12-19T02:56:01.130Z,3.92
2018-12-19T02:58:28.674Z,3.93
2018-12-19T03:00:56.195Z,3.96
2018-12-19T03:03:23.728Z,3.94
2018-12-19T03:05:51.237Z,3.91
2018-12-19T03:08:18.735Z,3.95
2018-12-19T03:10:46.675Z,3.81
2018-12-19T03:13:14.190Z,3.85
2018-12-19T03:15:41.775Z,3.83
2018-12-19T03:18:09.293Z,3.87
2018-12-19T03:20:36.845Z,3.92
2018-12-19T03:23:04.566Z,3.93
2018-12-19T03:25:32.100Z,3.96
2018-12-19T03:27:59.661Z,3.97
2018-12-19T03:30:27.211Z,3.95
2018-12-19T03:32:54.740Z,3.90
2018-12-19T03:35:22.296Z,3.89
2018-12-19T03:37:49.938Z,3.93
2018-12-19T03:40:17.483Z,3.94
2018-12-19T03:42:45.007Z,3.92
2018-12-19T03:45:12.569Z,3.99
2018-12-19T03:47:40.318Z,3.98
2018-12-19T03:50:08.058Z,4.00
2018-12-19T03:52:35.568Z,3.93
2018-12-19T03:55:03.399Z,3.98
2018-12-19T03:57:31.436Z,3.97
2018-12-19T03:59:59.115Z,4.08
2018-12-19T04:02:26.652Z,4.07
2018-12-19T04:04:54.202Z,4.15
2018-12-19T04:07:21.748Z,4.22
2018-12-19T04:09:49.265Z,4.24
2018-12-19T04:12:16.806Z,4.32
2018-12-19T04:14:44.308Z,4.34
2018-12-19T04:17:11.853Z,4.29
2018-12-19T04:19:39.363Z,4.38
2018-12-19T04:22:06.898Z,4.43
2018-12-19T04:24:34.403Z,4.45
2018-12-19T04:27:01.934Z,4.53
2018-12-19T04:29:29.544Z,4.58
2018-12-19T04:31:57.068Z,4.63
2018-12-19T04:34:24.578Z,4.64
2018-12-19T04:36:52.095Z,4.68
2018-12-19T04:39:19.611Z,4.73
2018-12-19T04:41:47.151Z,4.70
2018-12-19T04:44:14.684Z,4.78
2018-12-19T04:46:42.315Z,4.86
2018-12-19T04:49:09.823Z,4.90
2018-12-19T04:51:37.383Z,4.95
2018-12-19T04:54:04.884Z,4.99
2018-12-19T04:56:32.429Z,5.00
2018-12-19T04:58:59.943Z,5.19
2018-12-19T05:01:27.467Z,5.16
2018-12-19T05:03:54.973Z,5.26
2018-12-19T05:06:22.515Z,5.29
2018-12-19T05:08:50.023Z,5.36
2018-12-19T05:11:17.562Z,5.51
2018-12-19T05:13:45.066Z,5.62
2018-12-19T05:16:12.604Z,5.67
2018-12-19T05:18:40.113Z,5.69
2018-12-19T05:21:07.640Z,5.70
2018-12-19T05:23:35.256Z,5.75
2018-12-19T05:26:02.792Z,5.84
2018-12-19T05:28:30.315Z,5.82
2018-12-19T05:30:57.879Z,5.83
2018-12-19T05:33:25.517Z,5.85
2018-12-19T05:35:53.023Z,5.90
2018-12-19T05:38:20.567Z,5.93
2018-12-19T05:40:48.063Z,5.94
2018-12-19T05:43:15.592Z,5.97
2018-12-19T05:45:43.094Z,5.95
2018-12-19T05:48:10.619Z,5.89
2018-12-19T05:50:38.124Z,5.95
2018-12-19T05:53:05.650Z,5.98
2018-12-19T05:55:33.162Z,6.03
2018-12-19T05:58:00.706Z,6.06
2018-12-19T06:00:28.257Z,6.08
2018-12-19T06:02:55.883Z,6.10
2018-12-19T06:05:23.393Z,6.11
2018-12-19T06:07:51.007Z,6.15
2018-12-19T06:10:18.563Z,6.18
2018-12-19T06:12:46.101Z,6.15
2018-12-19T06:15:13.640Z,6.19
2018-12-19T06:17:41.205Z,6.20
2018-12-19T06:20:08.709Z,6.20
2018-12-19T06:22:36.247Z,6.21
2018-12-19T06:25:03.753Z,6.21
2018-12-19T06:27:31.300Z,6.22
2018-12-19T06:29:58.801Z,6.24
2018-12-19T06:32:26.327Z,6.26
2018-12-19T06:34:54.954Z,6.26
2018-12-19T06:37:22.612Z,6.29
2018-12-19T06:39:50.167Z,6.29
2018-12-19T06:42:17.706Z,6.33
2018-12-19T06:44:45.348Z,6.36
2018-12-19T06:47:12.941Z,6.38
2018-12-19T06:49:40.450Z,6.40
2018-12-19T06:52:08.056Z,6.42
2018-12-19T06:54:35.569Z,6.43
2018-12-19T06:57:03.218Z,6.47
2018-12-19T06:59:30.720Z,6.48
2018-12-19T07:01:58.298Z,6.45
2018-12-19T07:04:25.898Z,6.51
2018-12-19T07:06:53.444Z,6.50
2018-12-19T07:09:21.069Z,6.55
2018-12-19T07:11:48.583Z,6.55
2018-12-19T07:14:16.113Z,6.55
2018-12-19T07:16:43.728Z,6.55
2018-12-19T07:19:11.292Z,6.58
2018-12-19T07:21:38.800Z,6.58
2018-12-19T07:24:06.348Z,6.57
2018-12-19T07:26:33.868Z,6.57
2018-12-19T07:29:01.435Z,6.55
2018-12-19T07:31:28.950Z,6.56
2018-12-19T07:33:56.483Z,6.63
2018-12-19T07:36:23.984Z,6.60
2018-12-19T07:38:51.543Z,6.60
2018-12-19T07:41:19.064Z,6.59
2018-12-19T07:43:46.605Z,6.62
2018-12-19T07:46:19.701Z,6.65
2018-12-19T07:48:43.779Z,6.63
2018-12-19T07:51:11.291Z,6.66
2018-12-19T07:53:38.834Z,6.73
2018-12-19T07:56:06.548Z,6.74
2018-12-19T07:58:34.095Z,6.71
2018-12-19T08:01:01.590Z,6.71
2018-12-19T08:03:29.127Z,6.74
2018-12-19T08:05:56.638Z,6.76
2018-12-19T08:08:24.186Z,6.68
2018-12-19T08:10:52.322Z,6.71
2018-12-19T08:13:20.159Z,6.74
2018-12-19T08:15:47.664Z,6.72
2018-12-19T08:18:15.199Z,6.81
2018-12-19T08:20:42.776Z,6.83
2018-12-19T08:23:10.491Z,6.91
2018-12-19T08:25:38.059Z,6.90
2018-12-19T08:28:05.604Z,6.87
2018-12-19T08:30:33.119Z,6.88
2018-12-19T08:33:00.659Z,6.99
2018-12-19T08:35:28.173Z,7.00
2018-12-19T08:37:55.723Z,7.07
2018-12-19T08:40:23.240Z,7.09
2018-12-19T08:42:50.787Z,7.12
2018-12-19T08:45:18.381Z,7.16
2018-12-19T08:47:45.881Z,7.16
2018-12-19T08:50:13.417Z,7.16
2018-12-19T08:52:40.927Z,7.19
2018-12-19T08:55:08.563Z,7.20
2018-12-19T08:57:36.101Z,7.29
2018-12-19T09:00:05.655Z,7.31
2018-12-19T09:02:33.161Z,7.35
2018-12-19T09:05:00.699Z,7.36
2018-12-19T09:07:28.407Z,7.31
2018-12-19T09:09:56.054Z,7.28
2018-12-19T09:12:23.576Z,7.31
2018-12-19T09:14:51.116Z,7.29
2018-12-19T09:17:18.933Z,7.28
2018-12-19T09:19:47.339Z,7.32
2018-12-19T09:22:15.385Z,7.28
2018-12-19T09:24:42.949Z,7.31
2018-12-19T09:27:10.451Z,7.25
2018-12-19T09:29:37.984Z,7.26
2018-12-19T09:32:05.496Z,7.27
2018-12-19T09:34:33.036Z,7.21
2018-12-19T09:37:00.544Z,7.26
2018-12-19T09:39:28.074Z,7.27
2018-12-19T09:41:58.173Z,7.29
2018-12-19T09:44:25.783Z,7.32
2018-12-19T09:46:53.302Z,7.37
2018-12-19T09:49:20.830Z,7.50
2018-12-19T09:51:48.332Z,7.62
2018-12-19T09:54:15.872Z,7.72
2018-12-19T09:56:43.498Z,7.67
2018-12-19T09:59:11.056Z,7.67
2018-12-19T10:01:38.566Z,7.59
2018-12-19T10:04:06.099Z,7.69
2018-12-19T10:06:33.606Z,7.76
2018-12-19T10:09:01.139Z,7.85
2018-12-19T10:11:28.686Z,7.91
2018-12-19T10:13:56.256Z,7.99
2018-12-19T10:16:23.771Z,8.16
2018-12-19T10:18:51.301Z,8.18
2018-12-19T10:21:18.812Z,8.21
2018-12-19T10:23:46.336Z,8.33
2018-12-19T10:26:13.849Z,8.45
2018-12-19T10:28:41.404Z,8.57
2018-12-19T10:31:09.016Z,8.58
2018-12-19T10:33:36.533Z,8.54
2018-12-19T10:36:04.069Z,8.38
2018-12-19T10:38:31.601Z,8.39
2018-12-19T10:41:01.923Z,8.40
2018-12-19T10:43:30.347Z,8.37
2018-12-19T10:45:58.163Z,8.37
2018-12-19T10:48:26.011Z,8.45
2018-12-19T10:50:53.590Z,8.50
2018-12-19T10:53:21.909Z,8.51
2018-12-19T10:55:49.764Z,8.63
2018-12-19T10:58:17.541Z,8.68
2018-12-19T11:00:50.718Z,8.75
2018-12-19T11:03:19.292Z,8.74
2018-12-19T11:05:47.018Z,8.68
2018-12-19T11:08:15.031Z,8.62
2018-12-19T11:10:42.643Z,8.59
2018-12-19T11:13:11.129Z,8.62
2018-12-19T11:15:38.829Z,8.63
2018-12-19T11:18:07.688Z,8.67
2018-12-19T11:20:36.070Z,8.63
2018-12-19T11:23:03.699Z,8.59
2018-12-19T11:25:31.845Z,8.61
2018-12-19T11:27:59.721Z,8.61
2018-12-19T11:30:27.275Z,8.62
2018-12-19T11:32:54.780Z,8.60
2018-12-19T11:35:22.375Z,8.59
2018-12-19T11:37:50.079Z,8.59
2018-12-19T11:40:17.833Z,8.61
2018-12-19T11:42:45.862Z,8.67
2018-12-19T11:45:13.911Z,8.79
2018-12-19T11:47:41.458Z,8.84
2018-12-19T11:50:10.165Z,8.79
2018-12-19T11:52:37.822Z,8.81
2018-12-19T11:55:05.860Z,8.81
2018-12-19T11:57:34.476Z,8.81
2018-12-19T12:00:02.628Z,8.74
2018-12-19T12:02:32.962Z,8.75
2018-12-19T12:05:03.867Z,8.69
2018-12-19T12:07:32.706Z,8.69
2018-12-19T12:10:00.950Z,8.65
2018-12-19T12:12:30.724Z,8.70
2018-12-19T12:14:58.731Z,8.69
2018-12-19T12:17:26.982Z,8.68
2018-12-19T12:19:55.039Z,8.71
2018-12-19T12:22:23.131Z,8.72
2018-12-19T12:24:51.251Z,8.73
2018-12-19T12:27:19.499Z,8.74
2018-12-19T12:29:49.780Z,8.74
2018-12-19T12:32:18.972Z,8.86
2018-12-19T12:34:47.845Z,8.92
2018-12-19T12:37:16.078Z,8.97
2018-12-19T12:39:44.767Z,8.98
2018-12-19T12:42:12.860Z,8.93
2018-12-19T12:44:40.898Z,8.90
2018-12-19T12:47:08.480Z,8.85
2018-12-19T12:49:36.457Z,8.81
2018-12-19T12:52:05.268Z,8.90
2018-12-19T12:54:32.990Z,8.91
2018-12-19T12:57:01.007Z,8.90
2018-12-19T12:59:28.567Z,8.96
2018-12-19T13:01:56.645Z,8.91
2018-12-19T13:04:24.522Z,8.94
2018-12-19T13:06:52.606Z,8.86
2018-12-19T13:09:20.340Z,8.92
2018-12-19T13:11:48.294Z,8.91
2018-12-19T13:14:15.932Z,8.90
2018-12-19T13:16:43.950Z,9.03
2018-12-19T13:19:14.702Z,8.99
2018-12-19T13:21:52.177Z,9.05
2018-12-19T13:24:22.561Z,9.09
2018-12-19T13:26:50.466Z,9.03
2018-12-19T13:29:18.733Z,9.03
2018-12-19T13:31:46.995Z,9.08
2018-12-19T13:34:18.465Z,9.12
2018-12-19T13:36:47.346Z,9.17
2018-12-19T13:39:16.126Z,9.23
2018-12-19T13:41:44.718Z,9.33
2018-12-19T13:44:13.205Z,9.32
2018-12-19T13:46:41.321Z,9.30
2018-12-19T13:49:10.029Z,9.24
2018-12-19T13:51:37.623Z,9.14
2018-12-19T13:54:05.931Z,9.11
2018-12-19T13:56:35.421Z,9.07
2018-12-19T13:59:03.785Z,9.03
2018-12-19T14:01:33.256Z,8.98
2018-12-19T14:04:00.880Z,8.97
2018-12-19T14:06:31.591Z,8.91
2018-12-19T14:09:01.387Z,8.88
2018-12-19T14:11:30.772Z,8.81
2018-12-19T14:13:58.572Z,8.81
2018-12-19T14:16:26.927Z,8.80
2018-12-19T14:18:54.801Z,8.83
2018-12-19T14:21:22.698Z,8.80
2018-12-19T14:23:50.425Z,8.79
2018-12-19T14:26:21.070Z,8.77
2018-12-19T14:28:50.360Z,8.78
2018-12-19T14:31:22.202Z,8.74
2018-12-19T14:33:50.477Z,8.73
2018-12-19T14:36:19.931Z,8.72
2018-12-19T14:38:47.675Z,8.68
2018-12-19T14:41:16.614Z,8.65
2018-12-19T14:43:44.148Z,8.62
2018-12-19T14:46:11.657Z,8.62
2018-12-19T14:48:39.190Z,8.61
2018-12-19T14:51:06.791Z,8.61
2018-12-19T14:53:34.440Z,8.57
2018-12-19T14:56:01.969Z,8.56
2018-12-19T14:58:29.495Z,8.51
2018-12-19T15:00:57.054Z,8.52
2018-12-19T15:03:24.555Z,8.51
2018-12-19T15:05:52.083Z,8.47
2018-12-19T15:08:19.594Z,8.46
2018-12-19T15:10:47.133Z,8.43
2018-12-19T15:13:14.635Z,8.38
2018-12-19T15:15:44.180Z,8.39
2018-12-19T15:18:11.695Z,8.41
2018-12-19T15:20:39.222Z,8.40
2018-12-19T15:23:06.798Z,8.35
2018-12-19T15:25:34.386Z,8.36
2018-12-19T15:28:02.049Z,8.31
2018-12-19T15:30:29.735Z,8.30
2018-12-19T15:32:57.245Z,8.30
2018-12-19T15:35:24.794Z,8.31
2018-12-19T15:37:52.304Z,8.23
2018-12-19T15:40:19.858Z,8.24
2018-12-19T15:42:47.379Z,8.27
2018-12-19T15:45:14.933Z,8.26
2018-12-19T15:47:42.452Z,8.26
2018-12-19T15:50:10.008Z,8.26
2018-12-19T15:52:37.530Z,8.26
2018-12-19T15:55:05.070Z,8.25
2018-12-19T15:57:32.574Z,8.27
2018-12-19T16:00:00.105Z,8.26
2018-12-19T16:02:27.616Z,8.28
2018-12-19T16:04:55.155Z,8.26
2018-12-19T16:07:22.670Z,8.24
2018-12-19T16:09:50.211Z,8.25
2018-12-19T16:12:17.725Z,8.22
2018-12-19T16:14:45.304Z,8.20
2018-12-19T16:17:12.819Z,8.19
2018-12-19T16:19:40.384Z,8.20
2018-12-19T16:22:07.912Z,8.20
2018-12-19T16:24:35.452Z,8.24
2018-12-19T16:27:02.974Z,8.23
2018-12-19T16:29:30.558Z,8.24
2018-12-19T16:31:58.280Z,8.22
2018-12-19T16:34:25.851Z,8.19
2018-12-19T16:36:53.462Z,8.19
2018-12-19T16:39:20.979Z,8.17
2018-12-19T16:41:48.550Z,8.16
2018-12-19T16:44:16.396Z,8.16
2018-12-19T16:46:45.397Z,8.11
2018-12-19T16:49:13.079Z,8.08
2018-12-19T16:51:41.183Z,8.10
2018-12-19T16:54:09.077Z,8.11
2018-12-19T16:56:37.046Z,8.12
2018-12-19T16:59:04.931Z,8.09
2018-12-19T17:01:34.563Z,8.09
2018-12-19T17:04:02.188Z,8.06
2018-12-19T17:06:31.593Z,8.05
2018-12-19T17:08:59.171Z,8.05
2018-12-19T17:11:27.407Z,8.06
2018-12-19T17:13:56.216Z,8.08
2018-12-19T17:16:24.468Z,8.07
2018-12-19T17:18:52.149Z,8.01
2018-12-19T17:23:56.306Z,7.96
2018-12-19T17:26:24.043Z,7.95
2018-12-19T17:28:55.340Z,7.94
2018-12-19T17:31:22.978Z,7.93
2018-12-19T17:33:51.730Z,7.95
2018-12-19T17:36:22.046Z,7.92
2018-12-19T17:38:49.972Z,7.93
2018-12-19T17:41:18.303Z,7.94
2018-12-19T17:43:46.233Z,7.93
2018-12-19T17:46:14.079Z,7.93
2018-12-19T17:48:42.027Z,7.96
2018-12-19T17:51:10.865Z,8.01
2018-12-19T17:53:42.788Z,8.01
2018-12-19T17:56:12.805Z,8.01
2018-12-19T17:58:40.874Z,7.92
2018-12-19T18:01:09.101Z,7.89
2018-12-19T18:03:36.785Z,7.98
2018-12-19T18:06:04.743Z,7.94
2018-12-19T18:08:32.700Z,8.09
2018-12-19T18:11:00.716Z,8.19
2018-12-19T18:13:28.459Z,8.08
2018-12-19T18:15:56.260Z,8.13
2018-12-19T18:18:23.827Z,8.05
2018-12-19T18:20:51.494Z,7.99
2018-12-19T18:23:19.616Z,8.06
2018-12-19T18:25:49.081Z,8.01
2018-12-19T18:28:16.909Z,8.09
2018-12-19T18:30:44.577Z,8.17
2018-12-19T18:33:12.352Z,8.20
2018-12-19T18:35:40.828Z,8.12
2018-12-19T18:38:08.724Z,8.12
2018-12-19T18:40:36.307Z,8.08
2018-12-19T18:43:04.602Z,8.06
2018-12-19T18:45:32.440Z,8.09
2018-12-19T18:48:00.486Z,8.17
2018-12-19T18:50:29.709Z,8.16
2018-12-19T18:52:57.878Z,7.98
2018-12-19T18:55:25.681Z,8.02
2018-12-19T18:57:53.770Z,8.05
2018-12-19T19:00:27.383Z,8.14
2018-12-19T19:02:55.020Z,8.02
2018-12-19T19:05:23.279Z,8.08
2018-12-19T19:07:51.025Z,8.07
2018-12-19T19:10:19.295Z,8.11
2018-12-19T19:12:47.299Z,8.07
2018-12-19T19:15:14.836Z,8.13
2018-12-19T19:17:42.383Z,8.11
2018-12-19T19:20:09.891Z,7.93
2018-12-19T19:22:37.427Z,7.93
2018-12-19T19:25:05.484Z,7.95
2018-12-19T19:27:33.518Z,7.88
2018-12-19T19:30:01.112Z,7.87
2018-12-19T19:32:28.634Z,7.90
2018-12-19T19:34:56.180Z,7.91
2018-12-19T19:37:23.687Z,7.87
2018-12-19T19:39:51.787Z,7.85
2018-12-19T19:42:20.210Z,7.51
2018-12-19T19:44:48.149Z,7.74
2018-12-19T19:47:18.237Z,7.76
2018-12-19T19:49:45.824Z,7.74
2018-12-19T19:52:13.343Z,7.73
2018-12-19T19:54:41.278Z,7.67
2018-12-19T19:57:09.960Z,7.67
2018-12-19T19:59:37.491Z,7.61
2018-12-19T20:02:05.235Z,7.53
2018-12-19T20:04:32.794Z,7.46
2018-12-19T20:07:01.193Z,7.51
2018-12-19T20:09:29.072Z,7.51
2018-12-19T20:11:56.605Z,7.54
2018-12-19T20:14:24.139Z,7.54
2018-12-19T20:16:57.289Z,7.55
2018-12-19T20:19:24.865Z,7.52
2018-12-19T20:21:52.456Z,7.50
2018-12-19T20:24:20.115Z,7.53
2018-12-19T20:26:47.705Z,7.56
2018-12-19T20:29:26.426Z,7.54
2018-12-19T20:31:54.094Z,7.53
2018-12-19T20:34:21.635Z,7.49
2018-12-19T20:36:49.138Z,7.48
2018-12-19T20:39:16.698Z,7.55
2018-12-19T20:41:44.397Z,7.53
2018-12-19T20:44:11.949Z,7.40
2018-12-19T20:46:39.473Z,7.42
2018-12-19T20:49:07.063Z,7.43
2018-12-19T20:51:34.676Z,7.45
2018-12-19T20:54:02.232Z,7.42
2018-12-19T20:56:29.781Z,7.33
2018-12-19T20:58:57.324Z,7.34
2018-12-19T21:01:24.988Z,7.36
2018-12-19T21:03:52.511Z,7.28
2018-12-19T21:06:20.093Z,7.30
2018-12-19T21:08:47.620Z,7.24
2018-12-19T21:11:15.160Z,7.28
2018-12-19T21:13:46.787Z,7.18
2018-12-19T21:16:12.246Z,7.19
2018-12-19T21:18:42.625Z,7.20
2018-12-19T21:21:10.340Z,7.21
2018-12-19T21:23:37.878Z,7.03
2018-12-19T21:26:05.475Z,7.01
2018-12-19T21:28:33.007Z,7.07
2018-12-19T21:31:00.583Z,7.07
2018-12-19T21:33:28.091Z,7.02
2018-12-19T21:35:55.665Z,7.03
2018-12-19T21:38:23.195Z,7.11
2018-12-19T21:40:50.782Z,7.15
2018-12-19T21:43:18.654Z,7.12
2018-12-19T21:45:51.714Z,7.08
2018-12-19T21:48:17.727Z,7.00
2018-12-19T21:50:46.938Z,7.05
2018-12-19T21:53:14.591Z,6.93
2018-12-19T21:55:42.904Z,6.93
2018-12-19T21:58:11.157Z,6.92
2018-12-19T22:00:41.666Z,6.91
2018-12-19T22:03:10.647Z,6.78
2018-12-19T22:05:38.373Z,6.82
2018-12-19T22:08:06.035Z,6.78
2018-12-19T22:10:33.604Z,6.69
2018-12-19T22:13:01.339Z,6.64
2018-12-19T22:15:28.859Z,6.64
2018-12-19T22:18:02.003Z,6.62
2018-12-19T22:20:29.567Z,6.69
2018-12-19T22:22:58.075Z,6.58
2018-12-19T22:25:26.298Z,6.62
2018-12-19T22:27:54.100Z,6.74
2018-12-19T22:30:21.619Z,6.65
2018-12-19T22:32:49.200Z,6.66
2018-12-19T22:35:16.807Z,6.65
2018-12-19T22:37:45.483Z,6.65
2018-12-19T22:40:13.272Z,6.66
2018-12-19T22:42:42.589Z,6.72
2018-12-19T22:45:10.510Z,6.62
2018-12-19T22:47:38.249Z,6.60
2018-12-19T22:50:06.292Z,6.64
2018-12-19T22:52:34.113Z,6.59
2018-12-19T22:55:01.955Z,6.61
2018-12-19T22:57:29.717Z,6.68
2018-12-19T23:00:01.050Z,6.58
2018-12-19T23:02:35.924Z,6.58
2018-12-19T23:05:05.126Z,6.61
2018-12-19T23:07:33.639Z,6.59
2018-12-19T23:10:01.498Z,6.61
2018-12-19T23:12:29.259Z,6.60
2018-12-19T23:14:57.835Z,6.60
2018-12-19T23:17:31.060Z,6.64
2018-12-19T23:19:59.125Z,6.66
2018-12-19T23:22:28.612Z,6.66
2018-12-19T23:24:57.970Z,6.63
2018-12-19T23:27:29.121Z,6.66
2018-12-19T23:29:57.084Z,6.64
2018-12-19T23:32:31.441Z,6.68
2018-12-19T23:35:00.205Z,6.63
2018-12-19T23:37:28.254Z,6.62
2018-12-19T23:39:56.874Z,6.65
2018-12-19T23:42:25.034Z,6.64
2018-12-19T23:44:52.735Z,6.67
2018-12-19T23:47:20.826Z,6.64
2018-12-19T23:49:48.690Z,6.62
2018-12-19T23:52:16.478Z,6.53
2018-12-19T23:54:44.576Z,6.57
2018-12-19T23:57:12.167Z,6.58
2018-12-19T23:59:39.741Z,6.60
